sensor_id;sensor_type;location;lat;lon;timestamp;P1;durP1;ratioP1;P2;durP2;ratioP2
5823;SDS011;2938;52.254;12.988;2023-08-06T00:00:44;16.23;;;7.88;;
5823;SDS011;2938;52.254;12.988;2023-08-06T00:03:09;9.82;;;7.55;;
5823;SDS011;2938;52.254;12.988;2023-08-06T00:05:34;10.45;;;6.28;;
5823;SDS011;2938;52.254;12.988;2023-08-06T00:08:00;11.13;;;7.35;;
5823;SDS011;2938;52.254;12.988;2023-08-06T00:10:25;10.90;;;7.63;;
5823;SDS011;2938;52.254;12.988;2023-08-06T00:12:50;11.73;;;8.27;;
5823;SDS011;2938;52.254;12.988;2023-08-06T00:15:16;10.77;;;8.50;;
5823;SDS011;2938;52.254;12.988;2023-08-06T00:17:41;10.75;;;8.43;;
5823;SDS011;2938;52.254;12.988;2023-08-06T00:20:09;10.07;;;7.68;;
5823;SDS011;2938;52.254;12.988;2023-08-06T00:22:35;10.55;;;8.02;;
5823;SDS011;2938;52.254;12.988;2023-08-06T00:25:01;11.95;;;8.40;;
5823;SDS011;2938;52.254;12.988;2023-08-06T00:27:27;11.70;;;8.68;;
5823;SDS011;2938;52.254;12.988;2023-08-06T00:29:52;11.32;;;8.18;;
5823;SDS011;2938;52.254;12.988;2023-08-06T00:32:18;10.77;;;8.93;;
5823;SDS011;2938;52.254;12.988;2023-08-06T00:34:43;12.27;;;9.00;;
5823;SDS011;2938;52.254;12.988;2023-08-06T00:37:09;10.48;;;7.38;;
5823;SDS011;2938;52.254;12.988;2023-08-06T00:39:34;19.00;;;8.93;;
5823;SDS011;2938;52.254;12.988;2023-08-06T00:41:59;11.05;;;8.20;;
5823;SDS011;2938;52.254;12.988;2023-08-06T00:44:25;10.57;;;8.18;;
5823;SDS011;2938;52.254;12.988;2023-08-06T00:46:50;11.90;;;8.70;;
5823;SDS011;2938;52.254;12.988;2023-08-06T00:49:15;12.18;;;8.25;;
5823;SDS011;2938;52.254;12.988;2023-08-06T00:51:41;10.63;;;8.98;;
5823;SDS011;2938;52.254;12.988;2023-08-06T00:54:07;11.10;;;7.78;;
5823;SDS011;2938;52.254;12.988;2023-08-06T00:56:35;14.93;;;8.38;;
5823;SDS011;2938;52.254;12.988;2023-08-06T00:59:02;10.35;;;7.88;;
5823;SDS011;2938;52.254;12.988;2023-08-06T01:01:29;9.55;;;8.68;;
5823;SDS011;2938;52.254;12.988;2023-08-06T01:03:54;12.05;;;9.65;;
5823;SDS011;2938;52.254;12.988;2023-08-06T01:06:20;16.73;;;9.25;;
5823;SDS011;2938;52.254;12.988;2023-08-06T01:08:59;10.88;;;7.90;;
5823;SDS011;2938;52.254;12.988;2023-08-06T01:11:34;11.82;;;8.18;;
5823;SDS011;2938;52.254;12.988;2023-08-06T01:14:06;11.38;;;8.68;;
5823;SDS011;2938;52.254;12.988;2023-08-06T01:16:35;11.45;;;8.75;;
5823;SDS011;2938;52.254;12.988;2023-08-06T01:19:00;12.15;;;8.05;;
5823;SDS011;2938;52.254;12.988;2023-08-06T01:21:25;13.30;;;8.88;;
5823;SDS011;2938;52.254;12.988;2023-08-06T01:23:51;17.90;;;8.95;;
5823;SDS011;2938;52.254;12.988;2023-08-06T01:26:30;11.57;;;9.30;;
5823;SDS011;2938;52.254;12.988;2023-08-06T01:29:04;11.77;;;9.07;;
5823;SDS011;2938;52.254;12.988;2023-08-06T01:31:38;15.70;;;9.57;;
5823;SDS011;2938;52.254;12.988;2023-08-06T01:34:09;10.80;;;9.23;;
5823;SDS011;2938;52.254;12.988;2023-08-06T01:36:39;14.00;;;8.82;;
5823;SDS011;2938;52.254;12.988;2023-08-06T01:39:05;9.40;;;8.50;;
5823;SDS011;2938;52.254;12.988;2023-08-06T01:41:30;10.35;;;9.25;;
5823;SDS011;2938;52.254;12.988;2023-08-06T01:43:55;10.38;;;9.38;;
5823;SDS011;2938;52.254;12.988;2023-08-06T01:46:20;10.05;;;8.35;;
5823;SDS011;2938;52.254;12.988;2023-08-06T01:48:46;13.70;;;10.32;;
5823;SDS011;2938;52.254;12.988;2023-08-06T01:51:11;16.40;;;9.85;;
5823;SDS011;2938;52.254;12.988;2023-08-06T01:53:36;11.18;;;9.35;;
5823;SDS011;2938;52.254;12.988;2023-08-06T01:56:02;12.25;;;9.57;;
5823;SDS011;2938;52.254;12.988;2023-08-06T01:58:27;10.20;;;9.20;;
5823;SDS011;2938;52.254;12.988;2023-08-06T02:00:52;12.88;;;9.05;;
5823;SDS011;2938;52.254;12.988;2023-08-06T02:03:18;12.30;;;9.85;;
5823;SDS011;2938;52.254;12.988;2023-08-06T02:05:43;12.65;;;10.77;;
5823;SDS011;2938;52.254;12.988;2023-08-06T02:08:08;12.63;;;9.60;;
5823;SDS011;2938;52.254;12.988;2023-08-06T02:10:34;11.02;;;9.90;;
5823;SDS011;2938;52.254;12.988;2023-08-06T02:12:59;11.63;;;9.70;;
5823;SDS011;2938;52.254;12.988;2023-08-06T02:15:24;11.13;;;10.02;;
5823;SDS011;2938;52.254;12.988;2023-08-06T02:17:50;13.13;;;11.25;;
5823;SDS011;2938;52.254;12.988;2023-08-06T02:20:15;11.73;;;10.23;;
5823;SDS011;2938;52.254;12.988;2023-08-06T02:22:40;13.73;;;10.27;;
5823;SDS011;2938;52.254;12.988;2023-08-06T02:25:06;14.45;;;11.98;;
5823;SDS011;2938;52.254;12.988;2023-08-06T02:27:31;17.02;;;10.52;;
5823;SDS011;2938;52.254;12.988;2023-08-06T02:29:57;11.13;;;10.05;;
5823;SDS011;2938;52.254;12.988;2023-08-06T02:32:22;11.13;;;10.02;;
5823;SDS011;2938;52.254;12.988;2023-08-06T02:34:47;13.30;;;11.65;;
5823;SDS011;2938;52.254;12.988;2023-08-06T02:37:12;13.73;;;10.15;;
5823;SDS011;2938;52.254;12.988;2023-08-06T02:39:38;14.90;;;11.05;;
5823;SDS011;2938;52.254;12.988;2023-08-06T02:42:05;12.30;;;10.65;;
5823;SDS011;2938;52.254;12.988;2023-08-06T02:44:31;18.27;;;11.18;;
5823;SDS011;2938;52.254;12.988;2023-08-06T02:46:57;13.35;;;11.98;;
5823;SDS011;2938;52.254;12.988;2023-08-06T02:49:22;12.85;;;11.45;;
5823;SDS011;2938;52.254;12.988;2023-08-06T02:51:47;12.98;;;11.02;;
5823;SDS011;2938;52.254;12.988;2023-08-06T02:54:12;13.68;;;11.38;;
5823;SDS011;2938;52.254;12.988;2023-08-06T02:56:38;15.45;;;11.13;;
5823;SDS011;2938;52.254;12.988;2023-08-06T02:59:03;16.58;;;11.93;;
5823;SDS011;2938;52.254;12.988;2023-08-06T03:01:28;16.17;;;12.23;;
5823;SDS011;2938;52.254;12.988;2023-08-06T03:03:54;13.35;;;12.00;;
5823;SDS011;2938;52.254;12.988;2023-08-06T03:06:19;13.48;;;11.80;;
5823;SDS011;2938;52.254;12.988;2023-08-06T03:08:44;13.20;;;11.77;;
5823;SDS011;2938;52.254;12.988;2023-08-06T03:11:10;12.45;;;11.25;;
5823;SDS011;2938;52.254;12.988;2023-08-06T03:13:35;13.13;;;11.82;;
5823;SDS011;2938;52.254;12.988;2023-08-06T03:16:00;13.43;;;12.07;;
5823;SDS011;2938;52.254;12.988;2023-08-06T03:18:26;13.23;;;11.32;;
5823;SDS011;2938;52.254;12.988;2023-08-06T03:20:52;10.73;;;9.73;;
5823;SDS011;2938;52.254;12.988;2023-08-06T03:23:17;11.65;;;10.63;;
5823;SDS011;2938;52.254;12.988;2023-08-06T03:25:43;9.93;;;8.98;;
5823;SDS011;2938;52.254;12.988;2023-08-06T03:28:08;13.35;;;10.98;;
5823;SDS011;2938;52.254;12.988;2023-08-06T03:30:34;13.18;;;11.85;;
5823;SDS011;2938;52.254;12.988;2023-08-06T03:32:59;15.77;;;13.35;;
5823;SDS011;2938;52.254;12.988;2023-08-06T03:35:24;14.60;;;13.15;;
5823;SDS011;2938;52.254;12.988;2023-08-06T03:37:49;14.35;;;12.93;;
5823;SDS011;2938;52.254;12.988;2023-08-06T03:40:15;15.23;;;13.60;;
5823;SDS011;2938;52.254;12.988;2023-08-06T03:42:40;18.02;;;14.43;;
5823;SDS011;2938;52.254;12.988;2023-08-06T03:45:06;15.82;;;12.45;;
5823;SDS011;2938;52.254;12.988;2023-08-06T03:47:31;15.25;;;13.65;;
5823;SDS011;2938;52.254;12.988;2023-08-06T03:49:57;15.85;;;14.07;;
5823;SDS011;2938;52.254;12.988;2023-08-06T03:52:22;17.85;;;14.93;;
5823;SDS011;2938;52.254;12.988;2023-08-06T03:54:47;16.35;;;14.52;;
5823;SDS011;2938;52.254;12.988;2023-08-06T03:57:13;17.95;;;16.05;;
5823;SDS011;2938;52.254;12.988;2023-08-06T03:59:38;16.60;;;14.75;;
5823;SDS011;2938;52.254;12.988;2023-08-06T04:02:03;17.25;;;15.50;;
5823;SDS011;2938;52.254;12.988;2023-08-06T04:04:29;20.70;;;16.13;;
5823;SDS011;2938;52.254;12.988;2023-08-06T04:06:54;16.15;;;14.60;;
5823;SDS011;2938;52.254;12.988;2023-08-06T04:09:19;14.70;;;13.23;;
5823;SDS011;2938;52.254;12.988;2023-08-06T04:11:45;16.92;;;15.13;;
5823;SDS011;2938;52.254;12.988;2023-08-06T04:14:10;17.23;;;15.13;;
5823;SDS011;2938;52.254;12.988;2023-08-06T04:16:35;18.00;;;15.90;;
5823;SDS011;2938;52.254;12.988;2023-08-06T04:19:01;20.45;;;17.05;;
5823;SDS011;2938;52.254;12.988;2023-08-06T04:21:26;16.88;;;15.25;;
5823;SDS011;2938;52.254;12.988;2023-08-06T04:23:51;17.35;;;15.63;;
5823;SDS011;2938;52.254;12.988;2023-08-06T04:26:16;21.33;;;16.77;;
5823;SDS011;2938;52.254;12.988;2023-08-06T04:28:42;18.42;;;16.52;;
5823;SDS011;2938;52.254;12.988;2023-08-06T04:31:07;16.38;;;14.57;;
5823;SDS011;2938;52.254;12.988;2023-08-06T04:33:32;18.65;;;16.55;;
5823;SDS011;2938;52.254;12.988;2023-08-06T04:35:58;18.80;;;16.90;;
5823;SDS011;2938;52.254;12.988;2023-08-06T04:38:23;21.20;;;17.83;;
5823;SDS011;2938;52.254;12.988;2023-08-06T04:40:50;18.55;;;16.65;;
5823;SDS011;2938;52.254;12.988;2023-08-06T04:43:15;20.42;;;17.17;;
5823;SDS011;2938;52.254;12.988;2023-08-06T04:45:50;18.25;;;16.30;;
5823;SDS011;2938;52.254;12.988;2023-08-06T04:48:18;21.73;;;16.92;;
5823;SDS011;2938;52.254;12.988;2023-08-06T04:50:44;18.60;;;16.80;;
5823;SDS011;2938;52.254;12.988;2023-08-06T04:53:10;18.65;;;16.75;;
5823;SDS011;2938;52.254;12.988;2023-08-06T04:55:35;17.88;;;16.05;;
5823;SDS011;2938;52.254;12.988;2023-08-06T04:58:00;17.35;;;15.52;;
5823;SDS011;2938;52.254;12.988;2023-08-06T05:00:26;16.17;;;14.57;;
5823;SDS011;2938;52.254;12.988;2023-08-06T05:02:51;19.90;;;16.38;;
5823;SDS011;2938;52.254;12.988;2023-08-06T05:05:16;14.93;;;13.32;;
5823;SDS011;2938;52.254;12.988;2023-08-06T05:07:42;18.45;;;14.18;;
5823;SDS011;2938;52.254;12.988;2023-08-06T05:10:07;19.13;;;14.98;;
5823;SDS011;2938;52.254;12.988;2023-08-06T05:12:32;16.65;;;15.05;;
5823;SDS011;2938;52.254;12.988;2023-08-06T05:14:58;16.02;;;14.38;;
5823;SDS011;2938;52.254;12.988;2023-08-06T05:17:23;17.17;;;14.38;;
5823;SDS011;2938;52.254;12.988;2023-08-06T05:19:49;16.10;;;14.40;;
5823;SDS011;2938;52.254;12.988;2023-08-06T05:22:14;15.43;;;13.73;;
5823;SDS011;2938;52.254;12.988;2023-08-06T05:24:39;15.48;;;13.95;;
5823;SDS011;2938;52.254;12.988;2023-08-06T05:27:05;14.38;;;12.98;;
5823;SDS011;2938;52.254;12.988;2023-08-06T05:29:30;14.43;;;12.93;;
5823;SDS011;2938;52.254;12.988;2023-08-06T05:31:55;14.93;;;12.82;;
5823;SDS011;2938;52.254;12.988;2023-08-06T05:34:24;14.75;;;13.23;;
5823;SDS011;2938;52.254;12.988;2023-08-06T05:36:49;15.82;;;14.13;;
5823;SDS011;2938;52.254;12.988;2023-08-06T05:39:15;15.32;;;12.93;;
5823;SDS011;2938;52.254;12.988;2023-08-06T05:41:40;16.70;;;14.25;;
5823;SDS011;2938;52.254;12.988;2023-08-06T05:44:05;15.48;;;13.75;;
5823;SDS011;2938;52.254;12.988;2023-08-06T05:46:31;14.85;;;13.35;;
5823;SDS011;2938;52.254;12.988;2023-08-06T05:48:56;16.13;;;12.65;;
5823;SDS011;2938;52.254;12.988;2023-08-06T05:51:21;15.45;;;13.60;;
5823;SDS011;2938;52.254;12.988;2023-08-06T05:53:50;13.10;;;11.80;;
5823;SDS011;2938;52.254;12.988;2023-08-06T05:56:18;14.60;;;13.07;;
5823;SDS011;2938;52.254;12.988;2023-08-06T05:58:44;11.98;;;10.55;;
5823;SDS011;2938;52.254;12.988;2023-08-06T06:01:32;12.13;;;10.93;;
5823;SDS011;2938;52.254;12.988;2023-08-06T06:06:43;12.73;;;11.45;;
5823;SDS011;2938;52.254;12.988;2023-08-06T06:09:09;12.45;;;11.13;;
5823;SDS011;2938;52.254;12.988;2023-08-06T06:11:35;15.65;;;10.27;;
5823;SDS011;2938;52.254;12.988;2023-08-06T06:14:09;11.30;;;9.27;;
5823;SDS011;2938;52.254;12.988;2023-08-06T06:16:34;12.10;;;11.00;;
5823;SDS011;2938;52.254;12.988;2023-08-06T06:18:59;10.43;;;9.43;;
5823;SDS011;2938;52.254;12.988;2023-08-06T06:21:25;10.23;;;9.30;;
5823;SDS011;2938;52.254;12.988;2023-08-06T06:23:50;10.48;;;8.40;;
5823;SDS011;2938;52.254;12.988;2023-08-06T06:26:16;11.07;;;9.27;;
5823;SDS011;2938;52.254;12.988;2023-08-06T06:28:43;11.35;;;8.40;;
5823;SDS011;2938;52.254;12.988;2023-08-06T06:31:08;11.07;;;9.43;;
5823;SDS011;2938;52.254;12.988;2023-08-06T06:33:34;15.02;;;9.60;;
5823;SDS011;2938;52.254;12.988;2023-08-06T06:35:59;9.40;;;8.50;;
5823;SDS011;2938;52.254;12.988;2023-08-06T06:38:25;11.23;;;10.13;;
5823;SDS011;2938;52.254;12.988;2023-08-06T06:40:53;9.82;;;8.93;;
5823;SDS011;2938;52.254;12.988;2023-08-06T06:43:22;10.35;;;9.25;;
5823;SDS011;2938;52.254;12.988;2023-08-06T06:45:52;10.77;;;9.73;;
5823;SDS011;2938;52.254;12.988;2023-08-06T06:48:21;10.05;;;9.15;;
5823;SDS011;2938;52.254;12.988;2023-08-06T06:50:47;9.57;;;8.65;;
5823;SDS011;2938;52.254;12.988;2023-08-06T06:53:13;12.77;;;11.30;;
5823;SDS011;2938;52.254;12.988;2023-08-06T06:55:38;10.40;;;9.40;;
5823;SDS011;2938;52.254;12.988;2023-08-06T06:58:06;10.73;;;8.65;;
5823;SDS011;2938;52.254;12.988;2023-08-06T07:00:32;12.27;;;8.65;;
5823;SDS011;2938;52.254;12.988;2023-08-06T07:02:57;10.75;;;9.75;;
5823;SDS011;2938;52.254;12.988;2023-08-06T07:05:22;10.75;;;9.52;;
5823;SDS011;2938;52.254;12.988;2023-08-06T07:07:48;10.05;;;9.00;;
5823;SDS011;2938;52.254;12.988;2023-08-06T07:10:13;11.70;;;9.13;;
5823;SDS011;2938;52.254;12.988;2023-08-06T07:12:38;9.63;;;8.65;;
5823;SDS011;2938;52.254;12.988;2023-08-06T07:15:05;10.52;;;9.27;;
5823;SDS011;2938;52.254;12.988;2023-08-06T07:17:31;12.13;;;9.25;;
5823;SDS011;2938;52.254;12.988;2023-08-06T07:19:56;16.58;;;10.07;;
5823;SDS011;2938;52.254;12.988;2023-08-06T07:22:24;11.02;;;9.07;;
5823;SDS011;2938;52.254;12.988;2023-08-06T07:24:49;13.05;;;9.80;;
5823;SDS011;2938;52.254;12.988;2023-08-06T07:27:18;13.02;;;9.75;;
5823;SDS011;2938;52.254;12.988;2023-08-06T07:29:43;10.75;;;9.48;;
5823;SDS011;2938;52.254;12.988;2023-08-06T07:32:09;10.52;;;9.52;;
5823;SDS011;2938;52.254;12.988;2023-08-06T07:34:34;10.63;;;9.60;;
5823;SDS011;2938;52.254;12.988;2023-08-06T07:36:59;10.70;;;8.73;;
5823;SDS011;2938;52.254;12.988;2023-08-06T07:39:25;11.02;;;9.93;;
5823;SDS011;2938;52.254;12.988;2023-08-06T07:41:50;9.50;;;8.65;;
5823;SDS011;2938;52.254;12.988;2023-08-06T07:44:15;10.73;;;8.98;;
5823;SDS011;2938;52.254;12.988;2023-08-06T07:46:49;10.18;;;9.10;;
5823;SDS011;2938;52.254;12.988;2023-08-06T07:49:15;9.52;;;8.68;;
5823;SDS011;2938;52.254;12.988;2023-08-06T07:51:40;18.42;;;9.63;;
5823;SDS011;2938;52.254;12.988;2023-08-06T07:54:06;11.50;;;9.65;;
5823;SDS011;2938;52.254;12.988;2023-08-06T07:56:31;10.57;;;9.57;;
5823;SDS011;2938;52.254;12.988;2023-08-06T07:58:56;9.57;;;8.73;;
5823;SDS011;2938;52.254;12.988;2023-08-06T08:01:22;11.80;;;10.63;;
5823;SDS011;2938;52.254;12.988;2023-08-06T08:03:47;11.23;;;9.50;;
5823;SDS011;2938;52.254;12.988;2023-08-06T08:06:12;10.50;;;9.45;;
5823;SDS011;2938;52.254;12.988;2023-08-06T08:08:38;10.48;;;9.40;;
5823;SDS011;2938;52.254;12.988;2023-08-06T08:11:03;11.02;;;9.80;;
5823;SDS011;2938;52.254;12.988;2023-08-06T08:13:29;14.77;;;10.50;;
5823;SDS011;2938;52.254;12.988;2023-08-06T08:15:58;11.70;;;10.60;;
5823;SDS011;2938;52.254;12.988;2023-08-06T08:18:24;11.55;;;9.57;;
5823;SDS011;2938;52.254;12.988;2023-08-06T08:20:49;14.07;;;10.27;;
5823;SDS011;2938;52.254;12.988;2023-08-06T08:23:14;11.05;;;10.07;;
5823;SDS011;2938;52.254;12.988;2023-08-06T08:25:40;11.95;;;9.23;;
5823;SDS011;2938;52.254;12.988;2023-08-06T08:28:05;12.25;;;11.07;;
5823;SDS011;2938;52.254;12.988;2023-08-06T08:30:31;10.70;;;9.60;;
5823;SDS011;2938;52.254;12.988;2023-08-06T08:32:56;11.48;;;10.38;;
5823;SDS011;2938;52.254;12.988;2023-08-06T08:35:21;13.18;;;10.90;;
5823;SDS011;2938;52.254;12.988;2023-08-06T08:37:46;10.23;;;9.25;;
5823;SDS011;2938;52.254;12.988;2023-08-06T08:40:13;11.15;;;10.15;;
5823;SDS011;2938;52.254;12.988;2023-08-06T08:42:39;11.93;;;10.15;;
5823;SDS011;2938;52.254;12.988;2023-08-06T08:45:04;11.43;;;10.43;;
5823;SDS011;2938;52.254;12.988;2023-08-06T08:47:32;11.27;;;10.13;;
5823;SDS011;2938;52.254;12.988;2023-08-06T08:49:58;12.68;;;10.98;;
5823;SDS011;2938;52.254;12.988;2023-08-06T08:52:24;12.23;;;10.73;;
5823;SDS011;2938;52.254;12.988;2023-08-06T08:54:50;11.40;;;10.30;;
5823;SDS011;2938;52.254;12.988;2023-08-06T08:57:17;12.35;;;9.65;;
5823;SDS011;2938;52.254;12.988;2023-08-06T08:59:43;14.27;;;11.52;;
5823;SDS011;2938;52.254;12.988;2023-08-06T09:02:09;13.18;;;11.52;;
5823;SDS011;2938;52.254;12.988;2023-08-06T09:04:36;10.43;;;9.43;;
5823;SDS011;2938;52.254;12.988;2023-08-06T09:07:02;15.65;;;11.63;;
5823;SDS011;2938;52.254;12.988;2023-08-06T09:09:33;10.93;;;9.93;;
5823;SDS011;2938;52.254;12.988;2023-08-06T09:12:02;8.45;;;7.70;;
5823;SDS011;2938;52.254;12.988;2023-08-06T09:14:34;11.65;;;9.27;;
5823;SDS011;2938;52.254;12.988;2023-08-06T09:17:02;14.02;;;10.30;;
5823;SDS011;2938;52.254;12.988;2023-08-06T09:19:29;11.55;;;10.35;;
5823;SDS011;2938;52.254;12.988;2023-08-06T09:21:55;9.48;;;8.57;;
5823;SDS011;2938;52.254;12.988;2023-08-06T09:24:20;11.80;;;9.70;;
5823;SDS011;2938;52.254;12.988;2023-08-06T09:26:47;10.73;;;9.60;;
5823;SDS011;2938;52.254;12.988;2023-08-06T09:29:15;9.53;;;8.63;;
5823;SDS011;2938;52.254;12.988;2023-08-06T09:31:41;11.70;;;10.60;;
5823;SDS011;2938;52.254;12.988;2023-08-06T09:34:11;11.00;;;9.90;;
5823;SDS011;2938;52.254;12.988;2023-08-06T09:36:41;11.32;;;10.23;;
5823;SDS011;2938;52.254;12.988;2023-08-06T09:39:13;11.23;;;10.23;;
5823;SDS011;2938;52.254;12.988;2023-08-06T09:41:40;10.68;;;9.68;;
5823;SDS011;2938;52.254;12.988;2023-08-06T09:44:11;11.07;;;9.93;;
5823;SDS011;2938;52.254;12.988;2023-08-06T09:46:40;14.88;;;10.70;;
5823;SDS011;2938;52.254;12.988;2023-08-06T09:49:06;10.87;;;9.77;;
5823;SDS011;2938;52.254;12.988;2023-08-06T09:51:33;13.13;;;10.90;;
5823;SDS011;2938;52.254;12.988;2023-08-06T09:53:59;11.07;;;9.98;;
5823;SDS011;2938;52.254;12.988;2023-08-06T09:56:26;12.18;;;10.98;;
5823;SDS011;2938;52.254;12.988;2023-08-06T09:58:51;12.68;;;11.02;;
5823;SDS011;2938;52.254;12.988;2023-08-06T10:01:18;12.95;;;11.68;;
5823;SDS011;2938;52.254;12.988;2023-08-06T10:03:44;12.45;;;10.50;;
5823;SDS011;2938;52.254;12.988;2023-08-06T10:06:09;11.18;;;9.85;;
5823;SDS011;2938;52.254;12.988;2023-08-06T10:08:35;11.10;;;10.10;;
5823;SDS011;2938;52.254;12.988;2023-08-06T10:11:01;13.13;;;11.75;;
5823;SDS011;2938;52.254;12.988;2023-08-06T10:13:29;14.85;;;11.13;;
5823;SDS011;2938;52.254;12.988;2023-08-06T10:15:55;13.13;;;11.80;;
5823;SDS011;2938;52.254;12.988;2023-08-06T10:18:20;13.57;;;12.23;;
5823;SDS011;2938;52.254;12.988;2023-08-06T10:20:46;12.40;;;11.10;;
5823;SDS011;2938;52.254;12.988;2023-08-06T10:23:11;10.90;;;9.95;;
5823;SDS011;2938;52.254;12.988;2023-08-06T10:25:42;11.20;;;9.98;;
5823;SDS011;2938;52.254;12.988;2023-08-06T10:28:11;10.20;;;9.30;;
5823;SDS011;2938;52.254;12.988;2023-08-06T10:30:42;10.23;;;9.35;;
5823;SDS011;2938;52.254;12.988;2023-08-06T10:33:09;13.48;;;9.73;;
5823;SDS011;2938;52.254;12.988;2023-08-06T10:38:22;10.95;;;9.95;;
5823;SDS011;2938;52.254;12.988;2023-08-06T10:45:55;10.65;;;9.68;;
5823;SDS011;2938;52.254;12.988;2023-08-06T10:48:31;11.25;;;10.23;;
5823;SDS011;2938;52.254;12.988;2023-08-06T10:51:02;9.65;;;8.55;;
5823;SDS011;2938;52.254;12.988;2023-08-06T10:53:30;9.88;;;8.98;;
5823;SDS011;2938;52.254;12.988;2023-08-06T10:55:55;12.00;;;9.70;;
5823;SDS011;2938;52.254;12.988;2023-08-06T10:58:20;9.77;;;8.87;;
5823;SDS011;2938;52.254;12.988;2023-08-06T11:00:46;11.30;;;10.20;;
5823;SDS011;2938;52.254;12.988;2023-08-06T11:03:11;10.30;;;9.40;;
5823;SDS011;2938;52.254;12.988;2023-08-06T11:05:37;11.20;;;10.07;;
5823;SDS011;2938;52.254;12.988;2023-08-06T11:08:02;11.65;;;10.43;;
5823;SDS011;2938;52.254;12.988;2023-08-06T11:10:27;10.48;;;9.30;;
5823;SDS011;2938;52.254;12.988;2023-08-06T11:12:53;12.80;;;11.45;;
5823;SDS011;2938;52.254;12.988;2023-08-06T11:15:19;10.43;;;9.40;;
5823;SDS011;2938;52.254;12.988;2023-08-06T11:17:45;10.02;;;9.13;;
5823;SDS011;2938;52.254;12.988;2023-08-06T11:20:10;11.27;;;10.20;;
5823;SDS011;2938;52.254;12.988;2023-08-06T11:22:36;11.77;;;10.52;;
5823;SDS011;2938;52.254;12.988;2023-08-06T11:25:01;9.90;;;8.90;;
5823;SDS011;2938;52.254;12.988;2023-08-06T11:27:27;10.30;;;9.30;;
5823;SDS011;2938;52.254;12.988;2023-08-06T11:29:54;9.38;;;8.57;;
5823;SDS011;2938;52.254;12.988;2023-08-06T11:32:19;10.88;;;9.88;;
5823;SDS011;2938;52.254;12.988;2023-08-06T11:34:45;10.15;;;9.25;;
5823;SDS011;2938;52.254;12.988;2023-08-06T11:37:10;11.02;;;9.90;;
5823;SDS011;2938;52.254;12.988;2023-08-06T11:39:36;10.35;;;9.45;;
5823;SDS011;2938;52.254;12.988;2023-08-06T11:42:02;11.68;;;10.57;;
5823;SDS011;2938;52.254;12.988;2023-08-06T11:44:32;9.52;;;8.60;;
5823;SDS011;2938;52.254;12.988;2023-08-06T11:47:00;9.10;;;8.30;;
5823;SDS011;2938;52.254;12.988;2023-08-06T11:49:39;8.35;;;7.65;;
5823;SDS011;2938;52.254;12.988;2023-08-06T11:52:09;8.80;;;7.78;;
5823;SDS011;2938;52.254;12.988;2023-08-06T11:54:48;9.88;;;8.98;;
5823;SDS011;2938;52.254;12.988;2023-08-06T11:57:37;9.93;;;8.40;;
5823;SDS011;2938;52.254;12.988;2023-08-06T12:00:05;8.38;;;7.57;;
5823;SDS011;2938;52.254;12.988;2023-08-06T12:02:33;8.32;;;7.63;;
5823;SDS011;2938;52.254;12.988;2023-08-06T12:05:04;9.18;;;8.32;;
5823;SDS011;2938;52.254;12.988;2023-08-06T12:07:37;9.75;;;8.65;;
5823;SDS011;2938;52.254;12.988;2023-08-06T12:10:04;10.13;;;8.82;;
5823;SDS011;2938;52.254;12.988;2023-08-06T12:12:30;9.13;;;8.23;;
5823;SDS011;2938;52.254;12.988;2023-08-06T12:14:58;10.88;;;9.88;;
5823;SDS011;2938;52.254;12.988;2023-08-06T12:17:24;10.35;;;9.45;;
5823;SDS011;2938;52.254;12.988;2023-08-06T12:19:49;9.07;;;7.63;;
5823;SDS011;2938;52.254;12.988;2023-08-06T12:22:15;8.80;;;7.97;;
5823;SDS011;2938;52.254;12.988;2023-08-06T12:24:41;8.18;;;7.47;;
5823;SDS011;2938;52.254;12.988;2023-08-06T12:27:09;8.00;;;7.30;;
5823;SDS011;2938;52.254;12.988;2023-08-06T12:29:35;9.75;;;8.82;;
5823;SDS011;2938;52.254;12.988;2023-08-06T12:32:01;8.15;;;7.40;;
5823;SDS011;2938;52.254;12.988;2023-08-06T12:34:26;7.75;;;7.03;;
5823;SDS011;2938;52.254;12.988;2023-08-06T12:36:52;7.23;;;6.63;;
5823;SDS011;2938;52.254;12.988;2023-08-06T12:39:17;7.95;;;7.22;;
5823;SDS011;2938;52.254;12.988;2023-08-06T12:41:43;7.80;;;7.10;;
5823;SDS011;2938;52.254;12.988;2023-08-06T12:44:10;7.90;;;7.20;;
5823;SDS011;2938;52.254;12.988;2023-08-06T12:46:36;8.18;;;7.57;;
5823;SDS011;2938;52.254;12.988;2023-08-06T12:49:01;8.30;;;6.93;;
5823;SDS011;2938;52.254;12.988;2023-08-06T12:51:26;8.30;;;7.45;;
5823;SDS011;2938;52.254;12.988;2023-08-06T12:53:52;9.02;;;8.10;;
5823;SDS011;2938;52.254;12.988;2023-08-06T12:56:17;7.90;;;7.20;;
5823;SDS011;2938;52.254;12.988;2023-08-06T12:58:42;9.25;;;8.10;;
5823;SDS011;2938;52.254;12.988;2023-08-06T13:01:08;10.43;;;8.27;;
5823;SDS011;2938;52.254;12.988;2023-08-06T13:03:33;9.35;;;8.45;;
5823;SDS011;2938;52.254;12.988;2023-08-06T13:05:58;10.98;;;8.15;;
5823;SDS011;2938;52.254;12.988;2023-08-06T13:08:24;9.38;;;8.48;;
5823;SDS011;2938;52.254;12.988;2023-08-06T13:10:49;8.87;;;8.07;;
5823;SDS011;2938;52.254;12.988;2023-08-06T13:13:14;8.88;;;7.53;;
5823;SDS011;2938;52.254;12.988;2023-08-06T13:15:40;7.73;;;7.03;;
5823;SDS011;2938;52.254;12.988;2023-08-06T13:18:05;8.85;;;8.02;;
5823;SDS011;2938;52.254;12.988;2023-08-06T13:20:30;8.27;;;6.45;;
5823;SDS011;2938;52.254;12.988;2023-08-06T13:22:57;10.90;;;7.90;;
5823;SDS011;2938;52.254;12.988;2023-08-06T13:25:23;7.97;;;7.28;;
5823;SDS011;2938;52.254;12.988;2023-08-06T13:27:48;8.68;;;7.80;;
5823;SDS011;2938;52.254;12.988;2023-08-06T13:30:14;7.55;;;6.95;;
5823;SDS011;2938;52.254;12.988;2023-08-06T13:32:39;8.65;;;7.95;;
5823;SDS011;2938;52.254;12.988;2023-08-06T13:35:05;8.75;;;7.72;;
5823;SDS011;2938;52.254;12.988;2023-08-06T13:37:30;8.48;;;7.68;;
5823;SDS011;2938;52.254;12.988;2023-08-06T13:39:55;7.30;;;6.60;;
5823;SDS011;2938;52.254;12.988;2023-08-06T13:42:21;8.07;;;5.87;;
5823;SDS011;2938;52.254;12.988;2023-08-06T13:44:46;3.72;;;3.42;;
5823;SDS011;2938;52.254;12.988;2023-08-06T13:47:12;3.43;;;2.47;;
5823;SDS011;2938;52.254;12.988;2023-08-06T13:49:37;7.80;;;2.58;;
5823;SDS011;2938;52.254;12.988;2023-08-06T13:52:02;4.82;;;2.92;;
5823;SDS011;2938;52.254;12.988;2023-08-06T13:54:28;4.57;;;2.97;;
5823;SDS011;2938;52.254;12.988;2023-08-06T13:56:56;6.45;;;3.67;;
5823;SDS011;2938;52.254;12.988;2023-08-06T13:59:22;6.05;;;2.90;;
5823;SDS011;2938;52.254;12.988;2023-08-06T14:01:49;6.05;;;3.00;;
5823;SDS011;2938;52.254;12.988;2023-08-06T14:04:18;3.03;;;2.72;;
5823;SDS011;2938;52.254;12.988;2023-08-06T14:06:45;3.60;;;2.35;;
5823;SDS011;2938;52.254;12.988;2023-08-06T14:09:10;2.63;;;2.42;;
5823;SDS011;2938;52.254;12.988;2023-08-06T14:11:41;5.60;;;2.40;;
5823;SDS011;2938;52.254;12.988;2023-08-06T14:14:10;6.80;;;3.00;;
5823;SDS011;2938;52.254;12.988;2023-08-06T14:16:38;5.00;;;2.35;;
5823;SDS011;2938;52.254;12.988;2023-08-06T14:19:03;4.35;;;2.53;;
5823;SDS011;2938;52.254;12.988;2023-08-06T14:21:29;6.13;;;2.58;;
5823;SDS011;2938;52.254;12.988;2023-08-06T14:23:57;3.88;;;3.13;;
5823;SDS011;2938;52.254;12.988;2023-08-06T14:26:22;3.90;;;2.40;;
5823;SDS011;2938;52.254;12.988;2023-08-06T14:29:03;6.05;;;2.80;;
5823;SDS011;2938;52.254;12.988;2023-08-06T14:31:31;3.47;;;2.42;;
5823;SDS011;2938;52.254;12.988;2023-08-06T14:33:56;6.53;;;2.20;;
5823;SDS011;2938;52.254;12.988;2023-08-06T14:36:21;2.58;;;2.10;;
5823;SDS011;2938;52.254;12.988;2023-08-06T14:38:47;5.60;;;2.88;;
5823;SDS011;2938;52.254;12.988;2023-08-06T14:41:12;3.70;;;3.30;;
5823;SDS011;2938;52.254;12.988;2023-08-06T14:43:38;6.00;;;2.80;;
5823;SDS011;2938;52.254;12.988;2023-08-06T14:46:03;5.88;;;3.65;;
5823;SDS011;2938;52.254;12.988;2023-08-06T14:48:32;5.32;;;3.55;;
5823;SDS011;2938;52.254;12.988;2023-08-06T14:50:58;6.68;;;4.35;;